Kezdőlap
METAR-TAF:

METAR-TAF

Repülőterek :

Lublin, Lengyelország

földrajzi szélesség: 51-13-55N, földrajzi hosszúság: 22-41-25E, magasság: 203 m

Jelenlegi meteorológiai megfigyelések

A jelentés 20 perccel ezelõtt készült, 22:00 UTC
Nyugati szél 7 kt
Hőmérséklet -3°C
Páratartalom 86%
Légköri nyomás 1018 hPa
Látótávolság 10 km, vagy több
Kevés felhő 4200 lábon

METAR: EPLB 182200Z 28007KT 9999 FEW042 M03/M05 Q1018

Idő: 23:20 (22:20 UTC)

Előrejelzés

A jelentés 1 órával és 50 perccel ezelõtt készült, 20:30 UTC
Az előrejelzés 18-én 21 óra UTC és 19-én 06 óra UTC között érvényes
Nyugati szél 8 kt
Látótávolság 10 km, vagy több
Szórványos felhőzet 3000 lábon

TAF: EPLB 182030Z 1821/1906 28008KT 9999 SCT030

Meteorológiai megfigyelések és előrejelzések több, mint 4000 repülőtéren (METAR és TAF jelentéseket).

A térképen piros és sárga pontok jelzik az elérhető meteorológiai állomásokat.

Mozgassa az egeret a pont fölött, hogy megjelenjen az állomás neve.

Azután kattintson az időjárási megfigyelések és előrejelzések megtekintéséhez.

A térkép megváltoztatása: kattintson a fekete keresztel jelölt zöld gombra ráközelítéshez, a vonallal jelölt zöld gombra távolításhoz, vagy a zöld nyilakra a szomszédos térképek eléréséhez.


METAR-TAF: